createdAt,value
2018-12-29T00:00:35.191Z,77.00
2018-12-29T00:01:35.178Z,71.80
2018-12-29T00:02:35.185Z,72.50
2018-12-29T00:03:35.097Z,70.60
2018-12-29T00:04:35.061Z,75.30
2018-12-29T00:05:35.049Z,77.50
2018-12-29T00:06:35.008Z,75.30
2018-12-29T00:07:34.957Z,82.50
2018-12-29T00:08:34.926Z,78.10
2018-12-29T00:09:34.913Z,69.90
2018-12-29T00:10:34.869Z,77.10
2018-12-29T00:11:34.841Z,80.20
2018-12-29T00:12:34.856Z,83.00
2018-12-29T00:13:34.775Z,70.00
2018-12-29T00:14:34.751Z,77.80
2018-12-29T00:15:34.709Z,82.30
2018-12-29T00:16:34.694Z,74.40
2018-12-29T00:17:34.645Z,79.90
2018-12-29T00:18:34.628Z,77.60
2018-12-29T00:19:34.582Z,79.60
2018-12-29T00:20:34.560Z,81.90
2018-12-29T00:21:34.511Z,82.30
2018-12-29T00:22:34.491Z,84.40
2018-12-29T00:23:34.447Z,82.40
2018-12-29T00:24:34.415Z,82.10
2018-12-29T00:25:34.386Z,81.80
2018-12-29T00:26:34.363Z,85.10
2018-12-29T00:27:34.322Z,79.00
2018-12-29T00:28:34.285Z,81.70
2018-12-29T00:29:34.243Z,85.90
2018-12-29T00:30:34.220Z,84.50
2018-12-29T00:31:34.197Z,84.90
2018-12-29T00:32:34.160Z,87.30
2018-12-29T00:33:34.142Z,83.10
2018-12-29T00:34:34.091Z,83.70
2018-12-29T00:35:34.066Z,84.20
2018-12-29T00:36:34.033Z,79.80
2018-12-29T00:37:34.010Z,86.80
2018-12-29T00:38:33.969Z,86.60
2018-12-29T00:39:33.944Z,90.50
2018-12-29T00:40:33.911Z,89.30
2018-12-29T00:41:33.878Z,84.60
2018-12-29T00:42:33.833Z,85.40
2018-12-29T00:43:33.818Z,89.50
2018-12-29T00:44:33.775Z,89.00
2018-12-29T00:45:33.748Z,86.80
2018-12-29T00:46:33.702Z,94.90
2018-12-29T00:47:33.683Z,89.20
2018-12-29T00:48:33.653Z,91.20
2018-12-29T00:49:33.621Z,90.10
2018-12-29T00:50:33.597Z,86.40
2018-12-29T00:51:33.560Z,87.40
2018-12-29T00:52:33.528Z,89.50
2018-12-29T00:53:33.493Z,97.30
2018-12-29T00:54:33.462Z,92.10
2018-12-29T00:55:33.424Z,93.90
2018-12-29T00:56:33.385Z,95.10
2018-12-29T00:57:33.355Z,95.90
2018-12-29T00:58:33.352Z,88.80
2018-12-29T00:59:33.280Z,97.50
2018-12-29T01:00:33.257Z,101.90
2018-12-29T01:01:33.230Z,95.50
2018-12-29T01:02:33.190Z,93.50
2018-12-29T01:03:33.161Z,92.00
2018-12-29T01:04:33.129Z,97.70
2018-12-29T01:05:33.104Z,95.50
2018-12-29T01:06:33.061Z,100.80
2018-12-29T01:07:33.086Z,91.40
2018-12-29T01:08:32.993Z,94.30
2018-12-29T01:09:32.960Z,98.20
2018-12-29T01:10:32.938Z,98.80
2018-12-29T01:11:32.907Z,101.40
2018-12-29T01:12:32.878Z,100.00
2018-12-29T01:13:32.862Z,99.60
2018-12-29T01:14:32.802Z,100.60
2018-12-29T01:15:32.791Z,96.00
2018-12-29T01:16:32.745Z,102.50
2018-12-29T01:17:32.720Z,103.10
2018-12-29T01:19:01.382Z,101.50
2018-12-29T01:19:32.673Z,94.90
2018-12-29T01:20:32.663Z,102.50
2018-12-29T01:21:34.689Z,94.40
2018-12-29T01:22:32.562Z,94.60
2018-12-29T01:24:01.423Z,105.10
2018-12-29T01:24:32.539Z,102.00
2018-12-29T01:25:32.501Z,91.70
2018-12-29T01:26:39.438Z,99.10
2018-12-29T01:27:32.408Z,100.10
2018-12-29T01:28:40.355Z,103.20
2018-12-29T01:29:32.335Z,101.60
2018-12-29T01:30:39.860Z,106.80
2018-12-29T01:31:32.262Z,99.40
2018-12-29T01:32:33.313Z,106.30
2018-12-29T01:33:32.204Z,100.60
2018-12-29T01:34:57.932Z,102.20
2018-12-29T01:35:32.124Z,105.10
2018-12-29T01:36:32.260Z,113.50
2018-12-29T01:37:32.083Z,106.70
2018-12-29T01:38:33.147Z,111.20
2018-12-29T01:39:32.013Z,111.80
2018-12-29T01:40:31.965Z,113.70
2018-12-29T01:41:32.043Z,116.10
2018-12-29T01:42:31.902Z,109.80
2018-12-29T01:43:31.878Z,111.50
2018-12-29T01:44:31.968Z,105.80
2018-12-29T01:45:31.819Z,118.10
2018-12-29T01:46:31.782Z,112.30
2018-12-29T01:47:31.744Z,108.10
2018-12-29T01:48:31.717Z,109.30
2018-12-29T01:49:31.679Z,113.50
2018-12-29T01:50:31.660Z,110.90
2018-12-29T01:51:31.628Z,110.00
2018-12-29T01:52:52.605Z,118.10
2018-12-29T01:53:31.594Z,115.90
2018-12-29T01:54:38.335Z,117.90
2018-12-29T01:55:31.499Z,108.80
2018-12-29T02:03:50.066Z,120.20
2018-12-29T02:04:49.981Z,118.40
2018-12-29T02:05:49.984Z,112.90
2018-12-29T02:06:49.915Z,118.60
2018-12-29T02:07:49.939Z,119.80
2018-12-29T02:08:49.847Z,120.50
2018-12-29T02:09:49.820Z,116.60
2018-12-29T02:10:49.790Z,122.40
2018-12-29T02:11:49.788Z,116.60
2018-12-29T02:12:49.720Z,111.40
2018-12-29T02:13:49.691Z,122.10
2018-12-29T02:14:49.656Z,124.00
2018-12-29T02:15:49.631Z,112.20
2018-12-29T02:16:49.587Z,122.00
2018-12-29T02:17:49.556Z,112.30
2018-12-29T02:18:49.522Z,122.60
2018-12-29T02:19:49.488Z,124.50
2018-12-29T02:20:49.474Z,133.90
2018-12-29T02:21:49.443Z,129.40
2018-12-29T02:22:49.403Z,124.00
2018-12-29T02:23:49.385Z,120.20
2018-12-29T02:24:49.343Z,127.70
2018-12-29T02:25:49.299Z,119.30
2018-12-29T02:26:49.274Z,119.50
2018-12-29T02:27:49.251Z,125.70
2018-12-29T02:28:49.203Z,120.20
2018-12-29T02:29:49.177Z,119.50
2018-12-29T02:30:49.149Z,127.50
2018-12-29T02:31:49.119Z,128.10
2018-12-29T02:32:49.086Z,126.80
2018-12-29T02:33:49.050Z,128.80
2018-12-29T02:34:49.013Z,121.60
2018-12-29T02:35:48.976Z,131.00
2018-12-29T02:36:48.950Z,131.40
2018-12-29T02:37:48.943Z,125.80
2018-12-29T02:38:48.894Z,125.30
2018-12-29T02:39:48.878Z,133.10
2018-12-29T02:40:48.831Z,129.70
2018-12-29T02:41:48.884Z,119.00
2018-12-29T02:42:48.766Z,129.80
2018-12-29T02:43:48.741Z,128.20
2018-12-29T02:44:48.698Z,134.50
2018-12-29T02:45:48.666Z,129.90
2018-12-29T02:46:48.633Z,119.40
2018-12-29T02:47:48.615Z,129.80
2018-12-29T02:48:48.565Z,123.70
2018-12-29T02:49:48.538Z,127.30
2018-12-29T02:50:48.505Z,122.20
2018-12-29T02:51:48.482Z,121.70
2018-12-29T02:52:48.444Z,119.10
2018-12-29T02:53:48.403Z,127.40
2018-12-29T02:54:48.370Z,124.10
2018-12-29T02:55:48.356Z,127.80
2018-12-29T02:56:48.307Z,129.20
2018-12-29T02:57:48.334Z,121.60
2018-12-29T02:58:48.244Z,113.60
2018-12-29T02:59:48.214Z,125.70
2018-12-29T03:00:48.186Z,114.90
2018-12-29T03:01:48.154Z,130.00
2018-12-29T03:02:48.127Z,124.60
2018-12-29T03:03:48.087Z,126.20
2018-12-29T03:04:48.074Z,123.10
2018-12-29T03:05:48.029Z,124.30
2018-12-29T03:06:47.992Z,122.50
2018-12-29T03:07:47.955Z,124.40
2018-12-29T03:08:47.926Z,121.90
2018-12-29T03:09:47.895Z,124.80
2018-12-29T03:10:47.883Z,127.10
2018-12-29T03:11:47.931Z,134.90
2018-12-29T03:12:47.906Z,122.50
2018-12-29T03:13:47.765Z,126.60
2018-12-29T03:14:47.734Z,131.40
2018-12-29T03:15:47.700Z,118.00
2018-12-29T03:16:47.671Z,126.00
2018-12-29T03:17:47.639Z,130.30
2018-12-29T03:18:47.598Z,124.50
2018-12-29T03:19:47.584Z,129.60
2018-12-29T03:20:47.535Z,119.20
2018-12-29T03:21:47.520Z,120.50
2018-12-29T03:22:47.476Z,125.10
2018-12-29T03:23:47.452Z,126.20
2018-12-29T03:24:47.415Z,123.80
2018-12-29T03:25:47.387Z,122.00
2018-12-29T03:26:47.343Z,117.90
2018-12-29T03:27:47.313Z,120.40
2018-12-29T03:28:47.283Z,114.00
2018-12-29T03:29:47.243Z,117.40
2018-12-29T03:30:47.224Z,115.00
2018-12-29T03:31:47.279Z,124.20
2018-12-29T03:32:47.148Z,114.50
2018-12-29T03:33:47.124Z,126.00
2018-12-29T03:34:47.088Z,110.90
2018-12-29T03:35:47.054Z,116.80
2018-12-29T03:36:47.027Z,111.20
2018-12-29T03:37:46.991Z,114.30
2018-12-29T03:38:46.965Z,117.20
2018-12-29T03:39:46.928Z,105.20
2018-12-29T03:40:46.894Z,113.60
2018-12-29T03:41:46.852Z,112.30
2018-12-29T03:42:46.828Z,112.10
2018-12-29T03:43:46.799Z,116.50
2018-12-29T03:44:46.764Z,116.20
2018-12-29T03:45:49.306Z,107.10
2018-12-29T03:46:46.700Z,110.00
2018-12-29T03:47:46.677Z,108.30
2018-12-29T03:48:46.647Z,116.40
2018-12-29T03:49:46.607Z,110.90
2018-12-29T03:50:46.604Z,116.00
2018-12-29T03:51:46.563Z,116.90
2018-12-29T03:52:46.520Z,115.90
2018-12-29T03:53:46.480Z,113.40
2018-12-29T03:54:46.451Z,110.20
2018-12-29T03:55:46.406Z,114.70
2018-12-29T03:56:46.376Z,106.50
2018-12-29T03:57:46.358Z,106.20
2018-12-29T03:58:46.319Z,102.40
2018-12-29T03:59:46.354Z,112.20
2018-12-29T04:00:46.274Z,109.90
2018-12-29T04:01:46.239Z,110.30
2018-12-29T04:02:46.181Z,114.30
2018-12-29T04:03:46.169Z,113.30
2018-12-29T04:04:46.182Z,105.90
2018-12-29T04:05:46.123Z,104.80
2018-12-29T04:06:46.080Z,111.50
2018-12-29T04:07:46.042Z,104.00
2018-12-29T04:08:46.004Z,108.90
2018-12-29T04:09:45.986Z,107.40
2018-12-29T04:10:45.931Z,102.60
2018-12-29T04:11:45.907Z,105.20
2018-12-29T04:12:45.884Z,112.30
2018-12-29T04:13:45.860Z,107.40
2018-12-29T04:14:45.884Z,101.40
2018-12-29T04:15:45.777Z,107.40
2018-12-29T04:16:46.018Z,105.20
2018-12-29T04:17:46.780Z,110.00
2018-12-29T04:18:46.532Z,107.80
2018-12-29T04:20:00.314Z,105.40
2018-12-29T04:20:45.833Z,103.60
2018-12-29T04:51:07.310Z,113.20
2018-12-29T04:52:07.875Z,108.00
2018-12-29T04:54:00.542Z,105.60
2018-12-29T04:55:00.492Z,102.90
2018-12-29T04:56:00.475Z,107.70
2018-12-29T04:57:00.435Z,111.30
2018-12-29T04:58:00.407Z,107.20
2018-12-29T04:59:00.372Z,110.70
2018-12-29T05:00:00.351Z,110.20
2018-12-29T05:01:00.298Z,101.30
2018-12-29T05:02:00.285Z,105.00
2018-12-29T05:03:00.244Z,102.90
2018-12-29T05:04:00.240Z,103.00
2018-12-29T05:05:00.175Z,101.60
2018-12-29T05:06:00.252Z,107.90
2018-12-29T05:07:00.109Z,97.50
2018-12-29T05:08:00.088Z,107.70
2018-12-29T05:09:00.037Z,97.40
2018-12-29T05:10:00.011Z,101.70
2018-12-29T05:10:59.980Z,98.00
2018-12-29T05:11:59.961Z,105.50
2018-12-29T05:12:59.928Z,102.90
2018-12-29T05:13:59.894Z,98.60
2018-12-29T05:14:59.848Z,98.10
2018-12-29T05:15:59.835Z,102.00
2018-12-29T05:16:59.793Z,98.20
2018-12-29T05:17:59.761Z,93.10
2018-12-29T05:18:59.771Z,100.00
2018-12-29T05:19:59.710Z,101.10
2018-12-29T05:21:00.741Z,100.90
2018-12-29T05:21:59.656Z,88.30
2018-12-29T05:22:59.594Z,90.40
2018-12-29T05:23:59.567Z,93.00
2018-12-29T05:24:59.556Z,87.80
2018-12-29T05:25:59.510Z,91.20
2018-12-29T05:26:59.478Z,91.20
2018-12-29T05:27:59.451Z,97.10
2018-12-29T05:28:59.409Z,96.50
2018-12-29T05:29:59.383Z,85.40
2018-12-29T05:30:59.341Z,91.90
2018-12-29T05:31:59.668Z,95.20
2018-12-29T05:32:59.275Z,89.40
2018-12-29T05:33:59.267Z,91.90
2018-12-29T05:35:00.241Z,92.10
2018-12-29T05:35:59.390Z,87.00
2018-12-29T05:36:59.242Z,93.30
2018-12-29T05:37:59.114Z,93.10
2018-12-29T05:38:59.150Z,88.90
2018-12-29T05:39:59.080Z,97.80
2018-12-29T05:40:59.044Z,91.20
2018-12-29T05:41:58.991Z,98.70
2018-12-29T05:42:58.955Z,93.20
2018-12-29T05:43:58.932Z,89.00
2018-12-29T05:44:58.897Z,104.80
2018-12-29T05:45:58.873Z,93.60
2018-12-29T05:46:58.828Z,99.70
2018-12-29T05:48:00.471Z,103.20
2018-12-29T05:48:58.761Z,99.10
2018-12-29T05:49:58.760Z,98.10
2018-12-29T05:50:58.696Z,98.50
2018-12-29T05:51:58.664Z,104.10
2018-12-29T05:52:58.628Z,107.10
2018-12-29T05:53:58.609Z,103.80
2018-12-29T05:54:58.585Z,102.40
2018-12-29T05:55:58.556Z,104.80
2018-12-29T05:56:58.510Z,117.70
2018-12-29T05:57:58.486Z,111.80
2018-12-29T05:58:58.458Z,115.20
2018-12-29T05:59:58.425Z,122.40
2018-12-29T06:00:58.384Z,121.40
2018-12-29T06:01:58.354Z,119.40
2018-12-29T06:02:58.313Z,113.30
2018-12-29T06:03:58.284Z,123.70
2018-12-29T06:04:58.244Z,119.00
2018-12-29T06:05:58.222Z,109.90
2018-12-29T06:06:58.185Z,124.40
2018-12-29T06:07:58.161Z,109.70
2018-12-29T06:08:58.195Z,118.00
2018-12-29T06:09:58.083Z,117.60
2018-12-29T06:10:58.061Z,120.40
2018-12-29T06:11:58.031Z,132.80
2018-12-29T06:12:58.021Z,127.80
2018-12-29T06:13:57.964Z,123.30
2018-12-29T06:14:57.950Z,123.00
2018-12-29T06:15:57.896Z,123.10
2018-12-29T06:16:57.860Z,132.10
2018-12-29T06:17:57.868Z,126.70
2018-12-29T06:18:57.813Z,124.10
2018-12-29T06:19:57.895Z,137.80
2018-12-29T06:20:57.754Z,134.10
2018-12-29T06:21:57.713Z,133.90
2018-12-29T06:22:57.697Z,134.90
2018-12-29T06:23:57.651Z,131.80
2018-12-29T06:24:57.624Z,140.20
2018-12-29T06:25:57.586Z,128.20
2018-12-29T06:26:57.544Z,133.20
2018-12-29T06:27:57.523Z,140.50
2018-12-29T06:28:57.477Z,131.30
2018-12-29T06:29:57.471Z,133.80
2018-12-29T06:30:57.423Z,130.80
2018-12-29T06:31:57.388Z,141.30
2018-12-29T06:32:57.350Z,140.10
2018-12-29T06:33:57.319Z,123.30
2018-12-29T06:34:57.302Z,134.70
2018-12-29T06:35:57.254Z,149.00
2018-12-29T06:36:57.289Z,137.90
2018-12-29T06:37:57.201Z,140.30
2018-12-29T06:38:57.177Z,152.20
2018-12-29T06:39:57.124Z,144.60
2018-12-29T06:40:57.113Z,144.80
2018-12-29T06:41:57.121Z,145.10
2018-12-29T06:42:57.037Z,148.80
2018-12-29T06:43:57.039Z,150.70
2018-12-29T06:44:56.968Z,144.90
2018-12-29T06:45:56.954Z,152.60
2018-12-29T06:46:56.921Z,141.40
2018-12-29T06:47:56.979Z,146.60
2018-12-29T06:48:56.859Z,144.70
2018-12-29T06:49:56.868Z,150.00
2018-12-29T06:50:56.775Z,146.10
2018-12-29T06:51:56.775Z,143.50
2018-12-29T06:52:56.803Z,151.10
2018-12-29T06:53:56.692Z,155.40
2018-12-29T06:54:56.697Z,157.80
2018-12-29T06:55:56.616Z,147.00
2018-12-29T06:56:56.593Z,151.50
2018-12-29T06:57:56.557Z,148.60
2018-12-29T06:58:56.618Z,154.20
2018-12-29T06:59:56.506Z,145.60
2018-12-29T07:00:56.470Z,151.10
2018-12-29T07:01:56.523Z,145.70
2018-12-29T07:02:57.474Z,158.30
2018-12-29T07:03:56.394Z,158.10
2018-12-29T07:04:56.352Z,147.00
2018-12-29T07:05:56.302Z,152.30
2018-12-29T07:06:56.266Z,145.70
2018-12-29T07:07:56.272Z,160.60
2018-12-29T07:08:56.314Z,148.40
2018-12-29T07:09:56.291Z,152.20
2018-12-29T07:10:56.157Z,153.80
2018-12-29T07:12:03.066Z,155.80
2018-12-29T07:12:56.089Z,155.20
2018-12-29T07:13:56.102Z,158.80
2018-12-29T07:14:56.019Z,162.90
2018-12-29T07:15:56.032Z,159.50
2018-12-29T07:16:56.031Z,158.20
2018-12-29T07:17:55.941Z,150.00
2018-12-29T07:18:55.923Z,161.10
2018-12-29T07:19:56.875Z,155.20
2018-12-29T07:20:55.826Z,168.90
2018-12-29T07:21:57.902Z,155.10
2018-12-29T07:22:55.783Z,152.00
2018-12-29T07:23:57.825Z,176.50
2018-12-29T07:24:55.693Z,164.50
2018-12-29T07:25:56.704Z,153.30
2018-12-29T07:26:55.646Z,161.80
2018-12-29T07:27:55.683Z,171.00
2018-12-29T07:28:55.585Z,156.70
2018-12-29T07:29:55.528Z,164.10
2018-12-29T07:30:55.505Z,166.20
2018-12-29T07:31:55.476Z,167.20
2018-12-29T07:32:55.435Z,161.50
2018-12-29T07:33:55.421Z,153.60
2018-12-29T07:34:55.441Z,156.90
2018-12-29T07:35:55.337Z,168.50
2018-12-29T07:36:55.323Z,156.20
2018-12-29T07:37:55.271Z,161.40
2018-12-29T07:38:55.256Z,162.60
2018-12-29T07:39:55.234Z,160.80
2018-12-29T07:40:55.218Z,168.00
2018-12-29T07:41:55.150Z,156.50
2018-12-29T07:42:55.125Z,171.40
2018-12-29T07:43:55.094Z,163.90
2018-12-29T07:44:55.050Z,172.90
2018-12-29T07:45:55.026Z,169.60
2018-12-29T07:46:55.003Z,161.70
2018-12-29T07:47:54.963Z,174.70
2018-12-29T07:48:54.919Z,173.50
2018-12-29T07:49:54.891Z,169.40
2018-12-29T07:50:54.914Z,164.30
2018-12-29T07:51:54.858Z,160.30
2018-12-29T07:52:54.793Z,177.80
2018-12-29T07:53:54.785Z,172.20
2018-12-29T07:54:54.761Z,167.80
2018-12-29T07:55:54.707Z,165.00
2018-12-29T07:56:54.749Z,175.30
2018-12-29T07:57:54.657Z,173.90
2018-12-29T07:58:54.636Z,175.10
2018-12-29T07:59:54.590Z,178.30
2018-12-29T08:00:54.553Z,178.00
2018-12-29T08:01:54.513Z,164.30
2018-12-29T08:02:54.491Z,178.90
2018-12-29T08:03:54.441Z,180.60
2018-12-29T08:04:54.440Z,177.00
2018-12-29T08:05:54.430Z,174.10
2018-12-29T08:06:54.363Z,183.40
2018-12-29T08:07:54.316Z,171.30
2018-12-29T08:08:54.311Z,180.80
2018-12-29T08:09:54.265Z,175.60
2018-12-29T08:10:54.229Z,165.20
2018-12-29T08:11:54.195Z,176.20
2018-12-29T08:12:54.154Z,178.30
2018-12-29T08:13:54.122Z,166.10
2018-12-29T08:14:54.096Z,172.60
2018-12-29T08:15:54.064Z,168.00
2018-12-29T08:16:56.953Z,165.80
2018-12-29T08:17:54.029Z,174.40
2018-12-29T08:18:53.968Z,176.70
2018-12-29T08:19:53.953Z,179.50
2018-12-29T08:20:53.939Z,175.90
2018-12-29T08:21:53.871Z,186.80
2018-12-29T08:22:53.839Z,176.40
2018-12-29T08:23:53.838Z,171.30
2018-12-29T08:24:53.789Z,178.60
2018-12-29T08:25:53.786Z,176.50
2018-12-29T08:26:53.706Z,177.90
2018-12-29T08:27:53.697Z,179.70
2018-12-29T08:28:53.720Z,161.70
2018-12-29T08:29:53.613Z,176.20
2018-12-29T08:30:53.639Z,177.70
2018-12-29T08:31:53.558Z,172.20
2018-12-29T08:32:53.650Z,185.70
2018-12-29T08:33:53.492Z,185.30
2018-12-29T08:34:53.582Z,173.10
2018-12-29T08:35:53.422Z,160.00
2018-12-29T08:36:53.473Z,173.30
2018-12-29T08:37:53.357Z,172.60
2018-12-29T08:38:53.490Z,174.20
2018-12-29T08:39:53.309Z,165.40
2018-12-29T08:40:53.421Z,162.90
2018-12-29T08:41:53.233Z,175.70
2018-12-29T08:42:53.316Z,170.80
2018-12-29T08:43:53.172Z,165.90
2018-12-29T08:44:53.230Z,170.30
2018-12-29T08:45:53.116Z,169.30
2018-12-29T08:46:53.073Z,163.90
2018-12-29T08:47:53.140Z,168.30
2018-12-29T08:48:53.023Z,164.30
2018-12-29T08:49:53.071Z,162.90
2018-12-29T08:50:52.951Z,155.80
2018-12-29T08:51:53.073Z,165.80
2018-12-29T08:52:52.912Z,155.90
2018-12-29T08:53:52.975Z,163.50
2018-12-29T08:54:52.814Z,147.20
2018-12-29T08:55:52.887Z,158.30
2018-12-29T08:56:52.758Z,155.60
2018-12-29T08:57:52.795Z,161.90
2018-12-29T08:58:52.682Z,161.00
2018-12-29T08:59:52.806Z,162.30
2018-12-29T09:00:52.626Z,155.40
2018-12-29T09:01:52.720Z,158.00
2018-12-29T09:02:52.560Z,162.10
2018-12-29T09:03:52.631Z,166.00
2018-12-29T09:04:52.487Z,155.10
2018-12-29T09:05:52.548Z,155.20
2018-12-29T09:06:52.433Z,156.80
2018-12-29T09:07:52.559Z,148.30
2018-12-29T09:08:52.370Z,152.70
2018-12-29T09:09:52.462Z,152.50
2018-12-29T09:10:52.308Z,154.10
2018-12-29T09:11:52.411Z,157.60
2018-12-29T09:12:52.266Z,146.30
2018-12-29T09:13:52.297Z,157.30
2018-12-29T09:14:52.196Z,154.40
2018-12-29T09:15:52.332Z,153.30
2018-12-29T09:16:52.119Z,158.60
2018-12-29T09:17:52.174Z,148.30
2018-12-29T09:18:52.048Z,161.50
2018-12-29T09:19:52.116Z,155.50
2018-12-29T09:20:52.016Z,154.30
2018-12-29T09:21:52.105Z,149.30
2018-12-29T09:22:51.933Z,150.80
2018-12-29T09:23:52.036Z,148.00
2018-12-29T09:24:51.880Z,142.00
2018-12-29T09:25:51.927Z,148.80
2018-12-29T09:26:51.802Z,160.90
2018-12-29T09:27:51.842Z,142.80
2018-12-29T09:28:51.755Z,146.50
2018-12-29T09:29:51.782Z,141.00
2018-12-29T09:30:51.680Z,151.30
2018-12-29T09:31:51.793Z,149.10
2018-12-29T09:32:51.615Z,146.70
2018-12-29T09:33:51.685Z,139.80
2018-12-29T09:34:51.574Z,143.50
2018-12-29T09:35:51.612Z,149.10
2018-12-29T09:36:51.481Z,152.30
2018-12-29T09:37:51.604Z,142.90
2018-12-29T09:38:51.426Z,143.70
2018-12-29T09:39:51.503Z,146.40
2018-12-29T09:40:51.445Z,141.40
2018-12-29T09:41:58.170Z,144.00
2018-12-29T09:42:51.296Z,143.70
2018-12-29T09:43:51.317Z,145.10
2018-12-29T09:44:51.230Z,132.60
2018-12-29T09:45:52.272Z,143.40
2018-12-29T09:46:51.159Z,136.70
2018-12-29T09:47:51.251Z,147.30
2018-12-29T09:48:51.110Z,145.00
2018-12-29T09:49:52.183Z,143.00
2018-12-29T09:50:51.056Z,139.80
2018-12-29T09:51:52.078Z,137.60
2018-12-29T09:52:51.010Z,133.50
2018-12-29T09:54:14.629Z,142.90
2018-12-29T09:54:50.918Z,146.20
2018-12-29T09:55:52.022Z,139.00
2018-12-29T09:56:50.836Z,131.50
2018-12-29T09:57:50.905Z,142.20
2018-12-29T09:58:50.791Z,133.60
2018-12-29T09:59:51.873Z,144.90
2018-12-29T10:00:50.715Z,131.50
2018-12-29T10:02:05.679Z,126.30
2018-12-29T10:02:50.675Z,131.00
2018-12-29T10:03:51.787Z,129.90
2018-12-29T10:04:50.619Z,119.00
2018-12-29T10:05:52.729Z,131.40
2018-12-29T10:06:50.522Z,123.90
2018-12-29T10:07:51.617Z,121.80
2018-12-29T10:08:50.444Z,129.30
2018-12-29T10:09:50.605Z,121.40
2018-12-29T10:10:50.394Z,125.20
2018-12-29T10:11:50.526Z,128.20
2018-12-29T10:12:50.347Z,127.60
2018-12-29T10:13:50.405Z,126.30
2018-12-29T10:14:50.311Z,119.40
2018-12-29T10:15:51.365Z,114.40
2018-12-29T10:16:50.229Z,115.10
2018-12-29T10:17:51.252Z,127.70
2018-12-29T10:18:50.152Z,122.00
2018-12-29T10:19:50.243Z,123.20
2018-12-29T10:20:50.103Z,123.40
2018-12-29T10:21:50.159Z,115.90
2018-12-29T10:22:50.036Z,118.40
2018-12-29T10:23:50.069Z,123.70
2018-12-29T10:24:49.948Z,116.30
2018-12-29T10:25:51.006Z,119.60
2018-12-29T10:26:49.903Z,120.60
2018-12-29T10:27:49.995Z,115.90
2018-12-29T10:28:49.823Z,115.40
2018-12-29T10:29:50.992Z,125.20
2018-12-29T10:30:49.816Z,119.70
2018-12-29T10:31:49.804Z,119.40
2018-12-29T10:32:49.714Z,108.20
2018-12-29T10:33:50.733Z,114.80
2018-12-29T10:34:49.631Z,100.20
2018-12-29T10:35:49.729Z,113.70
2018-12-29T10:36:49.586Z,98.30
2018-12-29T10:37:49.679Z,109.90
2018-12-29T10:38:49.528Z,114.90
2018-12-29T10:39:50.580Z,115.80
2018-12-29T10:40:49.458Z,111.80
2018-12-29T10:41:49.560Z,106.60
2018-12-29T10:42:49.406Z,107.30
2018-12-29T10:43:49.480Z,103.50
2018-12-29T10:44:49.327Z,107.00
2018-12-29T10:45:49.391Z,99.50
2018-12-29T10:46:49.260Z,106.90
2018-12-29T10:47:49.322Z,98.10
2018-12-29T10:48:49.214Z,100.50
2018-12-29T10:49:49.330Z,103.20
2018-12-29T10:50:49.134Z,98.00
2018-12-29T10:51:49.238Z,92.20
2018-12-29T10:52:49.082Z,92.90
2018-12-29T10:53:49.146Z,90.90
2018-12-29T10:54:49.026Z,95.70
2018-12-29T10:55:49.066Z,98.70
2018-12-29T10:56:48.949Z,95.70
2018-12-29T10:57:49.067Z,83.40
2018-12-29T10:58:48.873Z,88.90
2018-12-29T10:59:48.971Z,80.10
2018-12-29T11:00:48.812Z,87.50
2018-12-29T11:01:48.890Z,86.80
2018-12-29T11:02:48.755Z,93.40
2018-12-29T11:03:56.667Z,81.20
2018-12-29T11:04:48.689Z,87.10
2018-12-29T11:05:48.824Z,86.50
2018-12-29T11:06:48.631Z,87.20
2018-12-29T11:07:48.725Z,82.10
2018-12-29T11:08:48.573Z,86.40
2018-12-29T11:09:48.658Z,77.90
2018-12-29T11:10:48.490Z,79.30
2018-12-29T11:11:48.549Z,81.80
2018-12-29T11:12:48.461Z,84.80
2018-12-29T11:13:48.545Z,83.90
2018-12-29T11:14:48.396Z,76.60
2018-12-29T11:15:48.464Z,73.20
2018-12-29T11:16:48.336Z,80.60
2018-12-29T11:17:48.392Z,80.90
2018-12-29T11:18:48.456Z,73.90
2018-12-29T11:19:48.330Z,73.30
2018-12-29T11:20:48.190Z,73.80
2018-12-29T11:21:48.233Z,69.30
2018-12-29T11:22:48.132Z,70.70
2018-12-29T11:23:48.257Z,76.40
2018-12-29T11:24:48.058Z,72.10
2018-12-29T11:25:48.064Z,68.80
2018-12-29T11:26:47.999Z,66.50
2018-12-29T11:27:48.079Z,69.90
2018-12-29T11:28:47.940Z,68.10
2018-12-29T11:29:47.974Z,71.30
2018-12-29T11:30:47.877Z,65.40
2018-12-29T11:31:47.967Z,66.70
2018-12-29T11:32:47.806Z,67.10
2018-12-29T11:33:47.866Z,64.30
2018-12-29T11:34:47.767Z,64.00
2018-12-29T11:35:47.929Z,66.60
2018-12-29T11:36:47.675Z,60.70
2018-12-29T11:37:47.719Z,59.00
2018-12-29T11:38:47.621Z,58.60
2018-12-29T11:39:47.693Z,61.70
2018-12-29T11:40:47.542Z,64.50
2018-12-29T11:41:47.607Z,60.90
2018-12-29T11:42:47.491Z,67.50
2018-12-29T11:43:47.620Z,60.40
2018-12-29T11:44:47.420Z,63.70
2018-12-29T11:45:47.535Z,65.30
2018-12-29T11:46:47.367Z,62.40
2018-12-29T11:47:49.871Z,58.20
2018-12-29T11:48:47.317Z,61.10
2018-12-29T11:49:47.368Z,56.90
2018-12-29T11:50:47.242Z,66.40
2018-12-29T11:51:47.456Z,57.30
2018-12-29T11:52:47.175Z,60.10
2018-12-29T11:53:47.298Z,60.80
2018-12-29T11:54:47.128Z,57.40
2018-12-29T11:55:47.190Z,58.00
2018-12-29T11:56:47.065Z,54.80
2018-12-29T11:57:47.206Z,54.10
2018-12-29T11:58:46.987Z,56.50
2018-12-29T11:59:47.106Z,54.60
2018-12-29T12:00:46.921Z,52.60
2018-12-29T12:01:47.022Z,58.50
2018-12-29T12:02:46.885Z,57.80
2018-12-29T12:03:46.960Z,53.70
2018-12-29T12:04:46.804Z,54.00
2018-12-29T12:05:46.968Z,54.70
2018-12-29T12:06:46.750Z,50.70
2018-12-29T12:07:46.902Z,52.00
2018-12-29T12:08:46.688Z,50.30
2018-12-29T12:09:46.772Z,53.90
2018-12-29T12:10:46.629Z,50.80
2018-12-29T12:11:46.586Z,51.90
2018-12-29T12:12:46.569Z,48.60
2018-12-29T12:13:46.532Z,52.70
2018-12-29T12:14:46.559Z,47.10
2018-12-29T12:15:46.490Z,48.10
2018-12-29T12:16:46.430Z,52.00
2018-12-29T12:17:46.403Z,51.80
2018-12-29T12:18:46.392Z,51.40
2018-12-29T12:19:46.324Z,48.60
2018-12-29T12:20:46.328Z,51.00
2018-12-29T12:21:46.462Z,54.10
2018-12-29T12:22:46.234Z,49.70
2018-12-29T12:23:46.207Z,48.70
2018-12-29T12:24:46.393Z,48.90
2018-12-29T12:25:46.158Z,48.80
2018-12-29T12:26:46.278Z,51.60
2018-12-29T12:27:46.092Z,53.80
2018-12-29T12:28:46.050Z,51.00
2018-12-29T12:29:46.031Z,49.80
2018-12-29T12:30:46.111Z,51.00
2018-12-29T12:31:45.961Z,52.00
2018-12-29T12:32:46.124Z,49.00
2018-12-29T12:33:45.893Z,49.90
2018-12-29T12:34:45.856Z,49.80
2018-12-29T12:35:46.145Z,46.30
2018-12-29T12:36:45.819Z,50.00
2018-12-29T12:37:45.893Z,49.00
2018-12-29T12:38:45.753Z,50.70
2018-12-29T12:39:45.791Z,51.50
2018-12-29T12:40:45.681Z,46.40
2018-12-29T12:41:45.720Z,47.60
2018-12-29T12:42:45.614Z,46.60
2018-12-29T12:43:45.726Z,45.60
2018-12-29T12:44:45.565Z,49.60
2018-12-29T12:45:45.639Z,47.20
2018-12-29T12:46:45.499Z,49.10
2018-12-29T12:47:45.543Z,46.30
2018-12-29T12:48:45.429Z,48.50
2018-12-29T12:49:45.460Z,49.60
2018-12-29T12:50:45.364Z,45.90
2018-12-29T12:51:45.480Z,48.10
2018-12-29T12:52:45.297Z,44.60
2018-12-29T12:53:45.373Z,48.80
2018-12-29T12:54:45.247Z,44.50
2018-12-29T12:55:45.292Z,47.60
2018-12-29T12:56:45.191Z,44.90
2018-12-29T12:57:45.204Z,43.70
2018-12-29T12:58:45.120Z,47.90
2018-12-29T12:59:45.217Z,47.90
2018-12-29T13:00:45.053Z,48.80
2018-12-29T13:01:45.130Z,44.60
2018-12-29T13:02:45.001Z,50.10
2018-12-29T13:03:45.046Z,43.90
2018-12-29T13:04:44.932Z,45.20
2018-12-29T13:05:45.063Z,49.20
2018-12-29T13:06:44.876Z,47.00
2018-12-29T13:07:44.970Z,46.60
2018-12-29T13:08:44.803Z,45.70
2018-12-29T13:09:46.519Z,45.30
2018-12-29T13:10:44.759Z,44.60
2018-12-29T13:11:44.800Z,45.60
2018-12-29T13:12:44.679Z,45.50
2018-12-29T13:13:44.840Z,47.70